Time;durP1;ratioP1;P1;durP2;ratioP2;P2;SDS_P1;SDS_P2;PMS_P1;PMS_P2;Temp;Humidity;BMP_temperature;BMP_pressure;BME280_temperature;BME280_humidity;BME280_pressure;Samples;Min_cycle;Max_cycle;Signal;HPM_P1;HPM_P2
2022/10/02 00:01:01;;;;;;;;;;;410.50;2355.20;;;;;;5090612;28;19920;-60
2022/10/02 00:03:27;;;;;;;;;;;410.50;2355.20;;;;;;5090514;28;19916;-60
2022/10/02 00:05:58;;;;;;;;;;;410.40;2355.20;;;;;;5090846;28;19924;-60
2022/10/02 00:08:29;;;;;;;;;;;410.40;2355.20;;;;;;5090794;28;20289;-62
2022/10/02 00:11:02;;;;;;;;;;;410.50;2355.20;;;;;;5090977;28;19918;-62
2022/10/02 00:13:32;;;;;;;;;;;410.20;2355.20;;;;;;5090755;28;19909;-61
2022/10/02 00:15:57;;;;;;;;;;;410.20;2355.20;;;;;;5090560;28;20301;-59
2022/10/02 00:18:31;;;;;;;;;;;410.20;2355.20;;;;;;5090881;28;19912;-60
2022/10/02 00:21:08;;;;;;;;;;;410.20;2355.20;;;;;;5090346;28;19953;-61
2022/10/02 00:23:37;;;;;;;;;;;410.30;2355.20;;;;;;5090599;28;19908;-59
2022/10/02 00:26:06;;;;;;;;;;;410.30;2355.20;;;;;;5090640;28;19908;-61
2022/10/02 00:28:44;;;;;;;;;;;410.40;2355.20;;;;;;5090350;28;19934;-60
2022/10/02 00:31:16;;;;;;;;;;;410.40;2355.20;;;;;;5089159;28;20259;-62
2022/10/02 00:33:44;;;;;;;;;;;410.40;2355.20;;;;;;5090243;28;19912;-61
2022/10/02 00:36:33;;;;;;;;;;;410.40;2355.20;;;;;;5090230;28;20457;-59
2022/10/02 00:38:59;;;;;;;;;;;410.40;2355.20;;;;;;5094138;28;20346;-59
2022/10/02 00:41:43;;;;;;;;;;;410.40;2355.20;;;;;;5094597;28;19908;-61
2022/10/02 00:44:27;;;;;;;;;;;410.40;2355.20;;;;;;5094180;28;19912;-59
2022/10/02 00:46:52;;;;;;;;;;;410.30;2355.20;;;;;;5094495;28;20006;-59
2022/10/02 00:49:37;;;;;;;;;;;410.40;2355.20;;;;;;5094067;28;20015;-59
2022/10/02 00:52:17;;;;;;;;;;;410.40;2355.20;;;;;;5094300;28;19916;-62
2022/10/02 00:54:42;;;;;;;;;;;410.40;2355.20;;;;;;5094238;28;19908;-62
2022/10/02 00:57:17;;;;;;;;;;;410.40;2355.20;;;;;;5093924;28;20257;-59
2022/10/02 00:59:50;;;;;;;;;;;410.50;2355.20;;;;;;5093934;28;19908;-62
2022/10/02 01:02:25;;;;;;;;;;;410.50;2355.20;;;;;;5094021;28;19954;-58
2022/10/02 01:04:51;;;;;;;;;;;410.40;2355.20;;;;;;5093457;28;19927;-59
2022/10/02 01:07:16;;;;;;;;;;;410.30;2355.20;;;;;;5093872;28;19924;-59
2022/10/02 01:09:43;;;;;;;;;;;410.30;2355.20;;;;;;5093829;28;20419;-59
2022/10/02 01:12:09;;;;;;;;;;;410.20;2355.20;;;;;;5093672;28;19934;-59
2022/10/02 01:14:35;;;;;;;;;;;410.20;2355.20;;;;;;5094002;28;19908;-61
2022/10/02 01:17:02;;;;;;;;;;;410.20;2355.20;;;;;;5094127;28;20382;-62
2022/10/02 01:19:30;;;;;;;;;;;410.20;2355.20;;;;;;5093487;28;19934;-61
2022/10/02 01:22:01;;;;;;;;;;;410.20;2355.20;;;;;;5093491;28;19912;-60
2022/10/02 01:24:31;;;;;;;;;;;410.20;2355.20;;;;;;5093613;28;19912;-61
2022/10/02 01:26:57;;;;;;;;;;;410.10;2355.20;;;;;;5093527;28;19908;-60
2022/10/02 01:29:23;;;;;;;;;;;410.10;2355.20;;;;;;5093588;28;20282;-60
2022/10/02 01:31:48;;;;;;;;;;;410.20;2355.20;;;;;;5093211;28;20033;-61
2022/10/02 01:34:14;;;;;;;;;;;410.20;2355.20;;;;;;5093373;28;19908;-61
2022/10/02 01:36:40;;;;;;;;;;;410.20;2355.20;;;;;;5093154;28;20437;-62
2022/10/02 01:39:05;;;;;;;;;;;410.20;2355.20;;;;;;5093412;28;19915;-59
2022/10/02 01:41:34;;;;;;;;;;;410.20;2355.20;;;;;;5093107;28;19919;-62
2022/10/02 01:44:00;;;;;;;;;;;410.20;2355.20;;;;;;5093070;28;19908;-62
2022/10/02 01:46:26;;;;;;;;;;;410.20;2355.20;;;;;;5093275;28;19919;-61
2022/10/02 01:49:14;;;;;;;;;;;410.20;2355.20;;;;;;5092809;28;19912;-62
2022/10/02 01:51:49;;;;;;;;;;;410.20;2355.20;;;;;;5092801;28;19919;-62
2022/10/02 01:54:20;;;;;;;;;;;410.20;2355.20;;;;;;5093168;28;19932;-58
2022/10/02 01:56:48;;;;;;;;;;;410.20;2355.20;;;;;;5092870;28;19910;-60
2022/10/02 01:59:14;;;;;;;;;;;410.10;2355.20;;;;;;5093033;28;19912;-58
2022/10/02 02:01:56;;;;;;;;;;;410.00;2355.20;;;;;;5092486;28;19953;-62
2022/10/02 02:04:27;;;;;;;;;;;410.00;2355.20;;;;;;5092580;28;20420;-61
2022/10/02 02:07:05;;;;;;;;;;;410.20;2355.20;;;;;;5092739;28;20451;-60
2022/10/02 02:09:31;;;;;;;;;;;410.20;2355.20;;;;;;5092681;28;19939;-62
2022/10/02 02:12:00;;;;;;;;;;;410.20;2355.20;;;;;;5092362;28;20358;-60
2022/10/02 02:14:31;;;;;;;;;;;410.30;2355.20;;;;;;5092376;28;20398;-59
2022/10/02 02:17:10;;;;;;;;;;;410.20;2355.20;;;;;;5092235;28;20011;-59
2022/10/02 02:19:39;;;;;;;;;;;410.20;2355.20;;;;;;5092319;28;19944;-59
2022/10/02 02:22:26;;;;;;;;;;;410.20;2355.20;;;;;;5092432;28;19908;-62
2022/10/02 02:24:52;;;;;;;;;;;410.20;2355.20;;;;;;5092508;28;19938;-59
2022/10/02 02:27:21;;;;;;;;;;;410.30;2355.20;;;;;;5092064;28;19909;-61
2022/10/02 02:29:48;;;;;;;;;;;410.30;2355.20;;;;;;5092245;28;19924;-60
2022/10/02 02:32:17;;;;;;;;;;;410.40;2355.20;;;;;;5092230;28;19908;-62
2022/10/02 02:34:45;;;;;;;;;;;410.40;2355.20;;;;;;5092056;28;20002;-59
2022/10/02 02:37:15;;;;;;;;;;;410.40;2355.20;;;;;;5092192;28;20331;-59
2022/10/02 02:39:44;;;;;;;;;;;410.40;2355.20;;;;;;5092130;28;19908;-61
2022/10/02 02:42:10;;;;;;;;;;;410.40;2355.20;;;;;;5092209;28;19915;-59
2022/10/02 02:44:41;;;;;;;;;;;410.40;2355.20;;;;;;5092084;28;19912;-59
2022/10/02 02:47:28;;;;;;;;;;;410.50;2355.20;;;;;;5091879;28;19916;-59
2022/10/02 02:49:53;;;;;;;;;;;410.50;2355.20;;;;;;5092082;28;19967;-60
2022/10/02 02:52:21;;;;;;;;;;;410.50;2355.20;;;;;;5091554;28;20296;-59
2022/10/02 02:55:08;;;;;;;;;;;410.50;2355.20;;;;;;5091633;28;19919;-59
2022/10/02 02:57:37;;;;;;;;;;;410.50;2355.20;;;;;;5091576;28;20345;-62
2022/10/02 03:00:04;;;;;;;;;;;410.50;2355.20;;;;;;5091088;28;19908;-59
2022/10/02 03:02:29;;;;;;;;;;;410.50;2355.20;;;;;;5091381;28;20003;-59
2022/10/02 03:04:55;;;;;;;;;;;410.50;2355.20;;;;;;5091458;28;19975;-61
2022/10/02 03:07:21;;;;;;;;;;;410.50;2355.20;;;;;;5091678;28;19911;-61
2022/10/02 03:09:53;;;;;;;;;;;410.50;2355.20;;;;;;5091471;28;19924;-59
2022/10/02 03:12:41;;;;;;;;;;;410.50;2355.20;;;;;;5091286;28;19931;-62
2022/10/02 03:15:07;;;;;;;;;;;410.50;2355.20;;;;;;5091286;28;19965;-59
2022/10/02 03:17:41;;;;;;;;;;;410.50;2355.20;;;;;;5091544;28;19908;-59
2022/10/02 03:20:09;;;;;;;;;;;410.50;2355.20;;;;;;5091515;28;19919;-61
2022/10/02 03:22:41;;;;;;;;;;;410.50;2355.20;;;;;;5091432;28;19908;-62
2022/10/02 03:25:33;;;;;;;;;;;410.40;2355.20;;;;;;5091160;28;20308;-59
2022/10/02 03:28:07;;;;;;;;;;;410.30;2355.20;;;;;;5088081;28;19912;-62
2022/10/02 03:30:34;;;;;;;;;;;410.20;2355.20;;;;;;5091467;28;19916;-59
2022/10/02 03:33:00;;;;;;;;;;;410.20;2355.20;;;;;;5091051;28;19912;-58
2022/10/02 03:35:26;;;;;;;;;;;410.00;2355.20;;;;;;5091178;28;19912;-61
2022/10/02 03:37:53;;;;;;;;;;;410.00;2355.20;;;;;;5091398;28;19915;-62
2022/10/02 03:40:23;;;;;;;;;;;409.90;2355.20;;;;;;5090823;28;20002;-62
2022/10/02 03:42:50;;;;;;;;;;;409.90;2355.20;;;;;;5091030;28;19919;-58
2022/10/02 03:45:16;;;;;;;;;;;409.90;2355.20;;;;;;5091015;28;19972;-59
2022/10/02 03:47:42;;;;;;;;;;;409.80;2355.20;;;;;;5090989;28;20299;-59
2022/10/02 03:50:08;;;;;;;;;;;409.90;2355.20;;;;;;5090739;28;19916;-62
2022/10/02 03:52:34;;;;;;;;;;;409.90;2355.20;;;;;;5090938;28;19908;-58
2022/10/02 03:55:04;;;;;;;;;;;409.90;2355.20;;;;;;5089911;28;20265;-59
2022/10/02 03:57:32;;;;;;;;;;;409.90;2355.20;;;;;;5090772;28;19985;-62
2022/10/02 04:00:05;;;;;;;;;;;409.80;2355.20;;;;;;5090809;28;19908;-61
2022/10/02 04:02:49;;;;;;;;;;;409.80;2355.20;;;;;;5090864;28;19908;-62
2022/10/02 04:05:33;;;;;;;;;;;409.70;2355.20;;;;;;5090781;28;20004;-59
2022/10/02 04:08:02;;;;;;;;;;;410.10;2355.20;;;;;;5090629;28;20357;-61
2022/10/02 04:10:30;;;;;;;;;;;409.90;2355.20;;;;;;5090428;28;19916;-62
2022/10/02 04:13:15;;;;;;;;;;;409.90;2355.20;;;;;;5097335;28;20090;-60
2022/10/02 04:15:53;;;;;;;;;;;409.90;2355.20;;;;;;5097260;28;20370;-62
2022/10/02 04:18:21;;;;;;;;;;;410.00;2355.20;;;;;;5097269;28;19944;-61
2022/10/02 04:20:55;;;;;;;;;;;410.00;2355.20;;;;;;5097177;28;20442;-61
2022/10/02 04:23:26;;;;;;;;;;;410.00;2355.20;;;;;;5097227;28;19954;-61
2022/10/02 04:25:54;;;;;;;;;;;410.00;2355.20;;;;;;5097439;28;20385;-59
2022/10/02 04:28:23;;;;;;;;;;;410.00;2355.20;;;;;;5096813;28;19908;-60
2022/10/02 04:30:50;;;;;;;;;;;410.00;2355.20;;;;;;5096862;28;19916;-60
2022/10/02 04:33:21;;;;;;;;;;;410.00;2355.20;;;;;;5097102;28;20400;-59
2022/10/02 04:35:52;;;;;;;;;;;410.00;2355.20;;;;;;5096851;28;20253;-60
2022/10/02 04:38:36;;;;;;;;;;;410.00;2355.20;;;;;;5097012;28;19912;-59
2022/10/02 04:41:20;;;;;;;;;;;409.90;2355.20;;;;;;5097230;28;19908;-59
2022/10/02 04:43:46;;;;;;;;;;;409.70;2355.20;;;;;;5096869;28;19955;-60
2022/10/02 04:46:20;;;;;;;;;;;409.70;2355.20;;;;;;5097237;28;20274;-59
2022/10/02 04:48:52;;;;;;;;;;;409.70;2355.20;;;;;;5096889;28;20079;-60
2022/10/02 04:51:35;;;;;;;;;;;409.70;2355.20;;;;;;5096839;28;20273;-61
2022/10/02 04:54:01;;;;;;;;;;;409.70;2355.20;;;;;;5096846;28;19909;-62
2022/10/02 04:56:42;;;;;;;;;;;409.70;2355.20;;;;;;5096840;28;19919;-60
2022/10/02 04:59:07;;;;;;;;;;;409.70;2355.20;;;;;;5095250;28;20403;-59
2022/10/02 05:01:44;;;;;;;;;;;409.90;2355.20;;;;;;5096820;28;19991;-62
2022/10/02 05:04:12;;;;;;;;;;;409.90;2355.20;;;;;;5096390;28;19912;-62
2022/10/02 05:06:47;;;;;;;;;;;410.00;2355.20;;;;;;5096490;28;19938;-61
2022/10/02 05:09:32;;;;;;;;;;;410.00;2355.20;;;;;;5096725;28;19916;-61
2022/10/02 05:12:00;;;;;;;;;;;410.00;2355.20;;;;;;5096585;28;19952;-60
2022/10/02 05:14:29;;;;;;;;;;;410.10;2355.20;;;;;;5096564;28;19908;-60
2022/10/02 05:16:54;;;;;;;;;;;410.10;2355.20;;;;;;5096866;28;20285;-61
2022/10/02 05:19:26;;;;;;;;;;;410.10;2355.20;;;;;;5095852;28;19920;-61
2022/10/02 05:21:54;;;;;;;;;;;410.00;2355.20;;;;;;5097112;28;19915;-62
2022/10/02 05:24:20;;;;;;;;;;;410.00;2355.20;;;;;;5092688;28;20354;-62
2022/10/02 05:26:48;;;;;;;;;;;410.00;2355.20;;;;;;5093687;28;19991;-60
2022/10/02 05:29:16;;;;;;;;;;;410.00;2355.20;;;;;;5093379;28;20429;-62
2022/10/02 05:32:08;;;;;;;;;;;409.90;2355.20;;;;;;5093391;28;20346;-59
2022/10/02 05:34:37;;;;;;;;;;;409.90;2355.20;;;;;;5084721;28;19919;-60
2022/10/02 05:37:15;;;;;;;;;;;409.90;2355.20;;;;;;5093435;28;19973;-59
2022/10/02 05:39:47;;;;;;;;;;;410.00;2355.20;;;;;;5093494;28;19930;-60
2022/10/02 05:42:28;;;;;;;;;;;410.00;2355.20;;;;;;5093163;28;20258;-60
2022/10/02 05:44:59;;;;;;;;;;;410.10;2355.20;;;;;;5093305;28;20008;-60
2022/10/02 05:47:29;;;;;;;;;;;410.20;2355.20;;;;;;5093269;28;19908;-62
2022/10/02 05:49:58;;;;;;;;;;;409.90;2355.20;;;;;;5093139;28;19916;-61
2022/10/02 05:52:47;;;;;;;;;;;435.20;2355.20;;;;;;5093050;28;19908;-58
2022/10/02 05:55:18;;;;;;;;;;;410.20;2355.20;;;;;;5070555;28;19962;-58
2022/10/02 05:57:47;;;;;;;;;;;410.20;2355.20;;;;;;5070350;28;19967;-62
2022/10/02 06:00:15;;;;;;;;;;;410.20;2355.20;;;;;;5070599;28;19915;-59
2022/10/02 06:02:43;;;;;;;;;;;410.50;2355.20;;;;;;5070239;28;19953;-59
2022/10/02 06:05:28;;;;;;;;;;;486.80;2380.80;;;;;;5069999;28;19925;-61
2022/10/02 06:07:56;;;;;;;;;;;563.40;2432.00;;;;;;5070702;28;20381;-61
2022/10/02 06:10:27;;;;;;;;;;;589.20;2329.60;;;;;;5070233;28;20358;-62
2022/10/02 06:12:59;;;;;;;;;;;614.80;2124.80;;;;;;5070203;28;19908;-59
2022/10/02 06:15:28;;;;;;;;;;;640.50;1971.20;;;;;;5070190;28;19969;-62
2022/10/02 06:18:00;;;;;;;;;;;665.70;1945.60;;;;;;5069445;28;19916;-60
2022/10/02 06:20:31;;;;;;;;;;;691.20;1868.80;;;;;;5068673;28;19940;-62
2022/10/02 06:23:23;;;;;;;;;;;692.10;1792.00;;;;;;5068486;28;19928;-60
2022/10/02 06:25:53;;;;;;;;;;;717.70;1689.60;;;;;;5065244;28;19915;-74
2022/10/02 06:28:32;;;;;;;;;;;743.30;1536.00;;;;;;5069427;28;19908;-63
2022/10/02 06:31:00;;;;;;;;;;;768.40;1561.60;;;;;;5069668;28;19917;-71
2022/10/02 06:33:29;;;;;;;;;;;819.60;1408.00;;;;;;5071983;28;20436;-66
2022/10/02 06:35:55;;;;;;;;;;;820.00;1382.40;;;;;;5071058;28;19919;-70
2022/10/02 06:38:21;;;;;;;;;;;820.00;1356.80;;;;;;5071802;28;19908;-71
2022/10/02 06:40:52;;;;;;;;;;;844.90;1356.80;;;;;;5071862;28;19917;-63
2022/10/02 06:43:50;;;;;;;;;;;845.00;1356.80;;;;;;5071585;28;19948;-62
2022/10/02 06:46:27;;;;;;;;;;;845.10;1356.80;;;;;;5032137;28;19913;-70
2022/10/02 06:48:58;;;;;;;;;;;845.70;1331.20;;;;;;5029581;28;20017;-61
2022/10/02 06:51:43;;;;;;;;;;;845.60;1331.20;;;;;;5029667;28;19913;-70
2022/10/02 06:54:18;;;;;;;;;;;870.50;1305.60;;;;;;5029451;28;20361;-60
2022/10/02 06:56:55;;;;;;;;;;;845.20;1305.60;;;;;;5029507;28;19909;-69
2022/10/02 06:59:21;;;;;;;;;;;845.40;1331.20;;;;;;5029187;28;20326;-68
2022/10/02 07:01:53;;;;;;;;;;;819.40;1382.40;;;;;;5034372;28;19917;-60
2022/10/02 07:04:23;;;;;;;;;;;870.50;1280.00;;;;;;5048815;28;20009;-62
2022/10/02 07:06:55;;;;;;;;;;;870.70;1254.40;;;;;;5049058;28;19947;-68
2022/10/02 07:09:39;;;;;;;;;;;871.30;1228.80;;;;;;5048884;28;19913;-69
2022/10/02 07:12:23;;;;;;;;;;;871.30;1228.80;;;;;;5049173;28;20386;-68
2022/10/02 07:15:08;;;;;;;;;;;845.40;1305.60;;;;;;5048381;28;20093;-63
2022/10/02 07:17:49;;;;;;;;;;;870.90;1254.40;;;;;;5034289;28;20300;-68
2022/10/02 07:20:47;;;;;;;;;;;871.30;1228.80;;;;;;5029024;28;19917;-64
2022/10/02 07:23:36;;;;;;;;;;;921.90;1203.20;;;;;;5028885;28;19910;-62
2022/10/02 07:26:11;;;;;;;;;;;896.90;1177.60;;;;;;4970067;28;19915;-68
2022/10/02 07:28:36;;;;;;;;;;;921.60;1203.20;;;;;;4969972;28;20443;-61
2022/10/02 07:31:08;;;;;;;;;;;921.60;1203.20;;;;;;4969968;28;19925;-69
2022/10/02 07:33:49;;;;;;;;;;;922.00;1152.00;;;;;;4967470;28;19918;-69
2022/10/02 07:36:18;;;;;;;;;;;896.90;1152.00;;;;;;4968074;28;19918;-61
2022/10/02 07:39:02;;;;;;;;;;;922.10;1152.00;;;;;;4968084;28;19917;-62
2022/10/02 07:41:27;;;;;;;;;;;947.80;1126.40;;;;;;4967952;28;19930;-62
2022/10/02 07:43:59;;;;;;;;;;;973.20;1126.40;;;;;;4967977;28;20364;-62
2022/10/02 07:46:33;;;;;;;;;;;948.10;1075.20;;;;;;4967119;28;20033;-65
2022/10/02 07:49:07;;;;;;;;;;;973.20;1100.80;;;;;;4967642;28;19924;-61
2022/10/02 07:51:49;;;;;;;;;;;972.80;1152.00;;;;;;4967975;28;19925;-62
2022/10/02 07:54:20;;;;;;;;;;;973.30;1075.20;;;;;;4967759;28;20273;-62
2022/10/02 07:56:47;;;;;;;;;;;947.80;1100.80;;;;;;4967473;28;19910;-61
2022/10/02 07:59:15;;;;;;;;;;;973.20;1100.80;;;;;;4993223;28;19909;-62
2022/10/02 08:01:42;;;;;;;;;;;948.00;1075.20;;;;;;5006667;28;20360;-63
2022/10/02 08:04:14;;;;;;;;;;;972.80;1075.20;;;;;;5065352;28;19912;-62
2022/10/02 08:06:40;;;;;;;;;;;947.70;1075.20;;;;;;5068683;28;19920;-62
2022/10/02 08:09:09;;;;;;;;;;;972.80;1100.80;;;;;;5068656;28;20007;-62
2022/10/02 08:11:47;;;;;;;;;;;973.20;1075.20;;;;;;5068345;28;20007;-64
2022/10/02 08:14:14;;;;;;;;;;;973.30;1075.20;;;;;;5068826;28;19969;-64
2022/10/02 08:16:53;;;;;;;;;;;947.20;1100.80;;;;;;5071239;28;19912;-65
2022/10/02 08:19:23;;;;;;;;;;;948.10;1075.20;;;;;;5087607;28;19918;-62
2022/10/02 08:21:54;;;;;;;;;;;947.60;1100.80;;;;;;5088646;28;19908;-64
2022/10/02 08:24:24;;;;;;;;;;;972.80;1100.80;;;;;;5088981;28;19991;-62
2022/10/02 08:26:53;;;;;;;;;;;948.10;1075.20;;;;;;5088815;28;19912;-62
2022/10/02 08:29:25;;;;;;;;;;;948.10;1075.20;;;;;;5088494;28;19923;-63
2022/10/02 08:31:51;;;;;;;;;;;973.50;1075.20;;;;;;5088141;28;20389;-65
2022/10/02 08:34:18;;;;;;;;;;;973.20;1075.20;;;;;;5088673;28;19969;-63
2022/10/02 08:36:53;;;;;;;;;;;973.50;1049.60;;;;;;5088913;28;19982;-64
2022/10/02 08:39:27;;;;;;;;;;;972.90;1075.20;;;;;;5088861;28;19962;-63
2022/10/02 08:41:53;;;;;;;;;;;947.40;1100.80;;;;;;5088904;28;19912;-63
2022/10/02 08:44:24;;;;;;;;;;;922.10;1126.40;;;;;;5088086;28;20354;-64
2022/10/02 08:46:57;;;;;;;;;;;947.20;1100.80;;;;;;5088580;28;20380;-65
2022/10/02 08:49:41;;;;;;;;;;;947.30;1126.40;;;;;;5088536;28;19916;-64
2022/10/02 08:52:25;;;;;;;;;;;947.60;1100.80;;;;;;5088758;28;19912;-61
2022/10/02 08:55:01;;;;;;;;;;;896.90;1126.40;;;;;;5089952;28;20293;-63
2022/10/02 08:57:27;;;;;;;;;;;871.10;1203.20;;;;;;5090064;28;19916;-63
2022/10/02 09:00:08;;;;;;;;;;;870.70;1228.80;;;;;;5093881;28;20377;-63
2022/10/02 09:02:56;;;;;;;;;;;845.00;1280.00;;;;;;5094015;28;19915;-62
2022/10/02 09:05:32;;;;;;;;;;;819.50;1331.20;;;;;;5093967;28;20297;-63
2022/10/02 09:08:06;;;;;;;;;;;768.80;1356.80;;;;;;5093793;28;19912;-62
2022/10/02 09:10:44;;;;;;;;;;;743.10;1408.00;;;;;;5093924;28;19916;-61
2022/10/02 09:13:28;;;;;;;;;;;742.40;1459.20;;;;;;5093828;28;20340;-62
2022/10/02 09:16:05;;;;;;;;;;;716.90;1459.20;;;;;;5093975;28;19956;-60
2022/10/02 09:18:46;;;;;;;;;;;716.80;1484.80;;;;;;5092134;28;19954;-64
2022/10/02 09:21:32;;;;;;;;;;;691.90;1510.40;;;;;;5091314;28;19915;-59
2022/10/02 09:24:15;;;;;;;;;;;691.80;1510.40;;;;;;5068953;28;19913;-63
2022/10/02 09:26:41;;;;;;;;;;;691.30;1536.00;;;;;;5069185;28;19909;-61
2022/10/02 09:29:19;;;;;;;;;;;691.30;1536.00;;;;;;5068656;28;19925;-60
2022/10/02 09:32:06;;;;;;;;;;;666.10;1536.00;;;;;;5069165;28;20054;-61
2022/10/02 09:34:50;;;;;;;;;;;665.90;1561.60;;;;;;5069041;28;19919;-60
2022/10/02 09:37:16;;;;;;;;;;;666.00;1587.20;;;;;;5068786;28;19919;-61
2022/10/02 09:39:42;;;;;;;;;;;666.30;1587.20;;;;;;5068911;28;20443;-62
2022/10/02 09:42:10;;;;;;;;;;;666.20;1561.60;;;;;;5068749;28;19916;-64
2022/10/02 09:44:35;;;;;;;;;;;666.00;1587.20;;;;;;5068756;28;20011;-64
2022/10/02 09:47:04;;;;;;;;;;;665.80;1561.60;;;;;;5068349;28;20391;-63
2022/10/02 09:49:33;;;;;;;;;;;665.70;1561.60;;;;;;5068388;28;20007;-64
2022/10/02 09:51:59;;;;;;;;;;;640.80;1561.60;;;;;;5068486;28;19908;-61
2022/10/02 09:54:49;;;;;;;;;;;640.60;1561.60;;;;;;5068668;28;19912;-60
2022/10/02 09:57:34;;;;;;;;;;;640.90;1561.60;;;;;;5068864;28;19918;-62
2022/10/02 10:00:04;;;;;;;;;;;665.80;1612.80;;;;;;5069149;28;19912;-62
2022/10/02 10:02:29;;;;;;;;;;;691.20;1536.00;;;;;;5091091;28;19909;-61
2022/10/02 10:04:55;;;;;;;;;;;691.20;1536.00;;;;;;5090736;28;19927;-61
2022/10/02 10:07:29;;;;;;;;;;;666.30;1561.60;;;;;;5091302;28;19912;-61
2022/10/02 10:09:55;;;;;;;;;;;666.30;1510.40;;;;;;5090876;28;20415;-60
2022/10/02 10:12:26;;;;;;;;;;;666.20;1510.40;;;;;;5090397;28;19916;-61
2022/10/02 10:15:01;;;;;;;;;;;666.20;1536.00;;;;;;5090753;28;19908;-61
2022/10/02 10:17:45;;;;;;;;;;;640.90;1459.20;;;;;;5090806;28;20123;-61
2022/10/02 10:20:21;;;;;;;;;;;640.60;1510.40;;;;;;5090509;28;19996;-61
2022/10/02 10:23:06;;;;;;;;;;;640.40;1536.00;;;;;;5090744;28;19912;-61
2022/10/02 10:25:31;;;;;;;;;;;640.50;1510.40;;;;;;5090279;28;19915;-61
2022/10/02 10:28:03;;;;;;;;;;;640.60;1510.40;;;;;;5090559;28;19916;-60
2022/10/02 10:30:47;;;;;;;;;;;640.80;1510.40;;;;;;5090444;28;19916;-61
2022/10/02 10:33:12;;;;;;;;;;;640.90;1433.60;;;;;;5090637;28;19967;-61
2022/10/02 10:35:54;;;;;;;;;;;640.70;1459.20;;;;;;5090540;28;19982;-61
2022/10/02 10:38:49;;;;;;;;;;;640.60;1408.00;;;;;;5090004;28;19943;-62
2022/10/02 10:41:15;;;;;;;;;;;640.20;1433.60;;;;;;5090649;28;20389;-60
2022/10/02 10:43:43;;;;;;;;;;;640.20;1459.20;;;;;;5090293;28;19908;-61
2022/10/02 10:46:09;;;;;;;;;;;640.10;1459.20;;;;;;5090247;28;20037;-60
2022/10/02 10:48:43;;;;;;;;;;;615.30;1484.80;;;;;;5090154;28;19908;-59
2022/10/02 10:51:15;;;;;;;;;;;615.10;1484.80;;;;;;5092156;28;19985;-61
2022/10/02 10:53:41;;;;;;;;;;;615.20;1510.40;;;;;;5091749;28;19915;-62
2022/10/02 10:56:09;;;;;;;;;;;640.00;1510.40;;;;;;5091843;28;19912;-59
2022/10/02 10:58:38;;;;;;;;;;;640.00;1510.40;;;;;;5091884;28;19942;-61
2022/10/02 11:01:29;;;;;;;;;;;640.10;1536.00;;;;;;5091555;28;20366;-61
2022/10/02 11:03:58;;;;;;;;;;;615.30;1536.00;;;;;;5083032;28;19965;-59
2022/10/02 11:06:30;;;;;;;;;;;640.00;1536.00;;;;;;5091563;28;19931;-59
2022/10/02 11:09:15;;;;;;;;;;;615.30;1587.20;;;;;;5091790;28;19916;-61
2022/10/02 11:11:47;;;;;;;;;;;615.20;1561.60;;;;;;5091403;28;19919;-59
2022/10/02 11:14:12;;;;;;;;;;;615.20;1561.60;;;;;;5089023;28;19909;-60
2022/10/02 11:16:57;;;;;;;;;;;615.20;1561.60;;;;;;5089979;28;19931;-61
2022/10/02 11:19:41;;;;;;;;;;;615.20;1561.60;;;;;;5090083;28;19912;-59
2022/10/02 11:22:10;;;;;;;;;;;640.20;1536.00;;;;;;5089096;28;19981;-61
2022/10/02 11:24:56;;;;;;;;;;;640.00;1561.60;;;;;;5089783;28;19908;-60
2022/10/02 11:27:29;;;;;;;;;;;615.30;1561.60;;;;;;5085176;28;19973;-61
2022/10/02 11:30:15;;;;;;;;;;;615.20;1561.60;;;;;;5089953;28;19916;-61
2022/10/02 11:32:44;;;;;;;;;;;615.00;1587.20;;;;;;5089365;28;19908;-60
2022/10/02 11:35:10;;;;;;;;;;;614.80;1587.20;;;;;;5089445;28;19916;-58
2022/10/02 11:37:37;;;;;;;;;;;614.90;1587.20;;;;;;5089811;28;20447;-60
2022/10/02 11:40:12;;;;;;;;;;;614.90;1612.80;;;;;;5089102;28;19908;-59
2022/10/02 11:42:41;;;;;;;;;;;615.00;1612.80;;;;;;5090208;28;19908;-60
2022/10/02 11:45:31;;;;;;;;;;;615.00;1612.80;;;;;;5090816;28;19972;-61
2022/10/02 11:48:08;;;;;;;;;;;615.00;1612.80;;;;;;5090851;28;20270;-60
2022/10/02 11:50:50;;;;;;;;;;;615.00;1638.40;;;;;;5090921;28;20330;-61
2022/10/02 11:53:19;;;;;;;;;;;615.00;1638.40;;;;;;5090970;28;19908;-61
2022/10/02 11:56:04;;;;;;;;;;;615.10;1638.40;;;;;;5090981;28;19915;-61
2022/10/02 11:58:40;;;;;;;;;;;615.10;1638.40;;;;;;5091027;28;19919;-60
2022/10/02 12:01:26;;;;;;;;;;;615.10;1638.40;;;;;;5090899;28;19954;-61
2022/10/02 12:03:58;;;;;;;;;;;615.00;1638.40;;;;;;5088282;28;19979;-59
2022/10/02 12:06:27;;;;;;;;;;;614.80;1638.40;;;;;;5088839;28;20294;-59
2022/10/02 12:09:01;;;;;;;;;;;614.60;1664.00;;;;;;5089196;28;19916;-58
2022/10/02 12:11:41;;;;;;;;;;;589.70;1715.20;;;;;;5089078;28;20361;-61
2022/10/02 12:14:25;;;;;;;;;;;589.60;1715.20;;;;;;5089322;28;19961;-60
2022/10/02 12:17:09;;;;;;;;;;;589.50;1740.80;;;;;;5088424;28;19908;-61
2022/10/02 12:28:34;;;;;;;;;;;589.70;1689.60;;;;;;5066813;28;19970;-58
2022/10/02 12:31:05;;;;;;;;;;;614.50;1715.20;;;;;;5065458;28;19917;-61
2022/10/02 12:33:35;;;;;;;;;;;614.70;1715.20;;;;;;5069218;28;19957;-61
2022/10/02 12:36:04;;;;;;;;;;;614.80;1689.60;;;;;;5069978;28;19920;-62
2022/10/02 12:38:38;;;;;;;;;;;589.70;1689.60;;;;;;5070106;28;20402;-62
2022/10/02 12:41:20;;;;;;;;;;;614.40;1715.20;;;;;;5070108;28;19913;-61
2022/10/02 12:44:04;;;;;;;;;;;614.40;1715.20;;;;;;5069268;28;20012;-60
2022/10/02 12:46:53;;;;;;;;;;;589.70;1689.60;;;;;;5069804;28;19916;-59
2022/10/02 12:49:54;;;;;;;;;;;614.50;1715.20;;;;;;5069528;28;19943;-60
2022/10/02 12:52:39;;;;;;;;;;;614.70;1715.20;;;;;;5009734;28;20004;-59
2022/10/02 12:55:23;;;;;;;;;;;614.80;1664.00;;;;;;5009768;28;19909;-59
2022/10/02 12:57:57;;;;;;;;;;;614.40;1689.60;;;;;;5014948;28;19975;-61
2022/10/02 13:00:23;;;;;;;;;;;614.40;1689.60;;;;;;5029903;28;19916;-59
2022/10/02 13:03:01;;;;;;;;;;;614.60;1689.60;;;;;;5029612;28;19909;-59
2022/10/02 13:05:46;;;;;;;;;;;614.70;1689.60;;;;;;5029327;28;19933;-60
2022/10/02 13:08:27;;;;;;;;;;;614.80;1689.60;;;;;;5028889;28;19917;-59
2022/10/02 13:11:00;;;;;;;;;;;614.40;1664.00;;;;;;5029395;28;19964;-59
2022/10/02 13:13:30;;;;;;;;;;;614.50;1689.60;;;;;;5029647;28;19909;-59
2022/10/02 13:15:55;;;;;;;;;;;614.60;1689.60;;;;;;5029399;28;19956;-60
2022/10/02 13:18:42;;;;;;;;;;;614.60;1715.20;;;;;;5029383;28;19917;-61
2022/10/02 13:21:08;;;;;;;;;;;614.80;1664.00;;;;;;5029064;28;19916;-58
2022/10/02 13:23:41;;;;;;;;;;;614.70;1664.00;;;;;;5029477;28;19916;-61
2022/10/02 13:26:10;;;;;;;;;;;614.70;1689.60;;;;;;5055358;28;19943;-58
2022/10/02 13:28:48;;;;;;;;;;;614.60;1715.20;;;;;;5092023;28;19955;-59
2022/10/02 13:31:13;;;;;;;;;;;614.60;1689.60;;;;;;5092045;28;19986;-60
2022/10/02 13:33:45;;;;;;;;;;;614.70;1740.80;;;;;;5091634;28;20365;-62
2022/10/02 13:36:28;;;;;;;;;;;614.80;1740.80;;;;;;5091318;28;19955;-61
2022/10/02 13:39:03;;;;;;;;;;;614.80;1715.20;;;;;;5091896;28;20504;-62
2022/10/02 13:41:46;;;;;;;;;;;614.80;1689.60;;;;;;5091547;28;20314;-62
2022/10/02 13:44:12;;;;;;;;;;;614.80;1715.20;;;;;;5090882;28;20389;-59
2022/10/02 13:46:53;;;;;;;;;;;614.80;1689.60;;;;;;5091397;28;19912;-59
2022/10/02 13:49:37;;;;;;;;;;;614.80;1689.60;;;;;;5090759;28;19916;-59
2022/10/02 13:52:20;;;;;;;;;;;614.80;1689.60;;;;;;5091654;28;20445;-61
2022/10/02 13:54:49;;;;;;;;;;;614.80;1689.60;;;;;;5091573;28;19954;-61
2022/10/02 13:57:14;;;;;;;;;;;614.90;1689.60;;;;;;5091544;28;19961;-59
2022/10/02 13:59:58;;;;;;;;;;;614.80;1689.60;;;;;;5091206;28;19908;-59
2022/10/02 14:02:27;;;;;;;;;;;614.60;1740.80;;;;;;5090521;28;19965;-61
2022/10/02 14:04:54;;;;;;;;;;;614.70;1715.20;;;;;;5090923;28;19927;-61
2022/10/02 14:07:27;;;;;;;;;;;614.80;1689.60;;;;;;5091556;28;19959;-60
2022/10/02 14:10:22;;;;;;;;;;;614.70;1740.80;;;;;;5092893;28;20346;-60
2022/10/02 14:13:06;;;;;;;;;;;614.70;1766.40;;;;;;5087021;28;19916;-61
2022/10/02 14:15:40;;;;;;;;;;;614.60;1740.80;;;;;;5092690;28;19908;-60
2022/10/02 14:18:05;;;;;;;;;;;614.60;1715.20;;;;;;5092659;28;20324;-59
2022/10/02 14:20:39;;;;;;;;;;;589.70;1689.60;;;;;;5092745;28;19908;-61
2022/10/02 14:23:18;;;;;;;;;;;614.50;1740.80;;;;;;5092418;28;20366;-60
2022/10/02 14:25:54;;;;;;;;;;;614.50;1715.20;;;;;;5094756;28;20027;-61